sensor_id;sensor_type;location;lat;lon;timestamp;P1;durP1;ratioP1;P2;durP2;ratioP2
43626;SDS011;29217;52.586;13.442;2023-10-19T00:01:13;13.77;;;7.95;;
43626;SDS011;29217;52.586;13.442;2023-10-19T00:03:40;12.77;;;7.45;;
43626;SDS011;29217;52.586;13.442;2023-10-19T00:06:06;15.98;;;7.95;;
43626;SDS011;29217;52.586;13.442;2023-10-19T00:08:32;14.20;;;8.02;;
43626;SDS011;29217;52.586;13.442;2023-10-19T00:11:07;17.17;;;8.18;;
43626;SDS011;29217;52.586;13.442;2023-10-19T00:13:34;18.88;;;8.02;;
43626;SDS011;29217;52.586;13.442;2023-10-19T00:16:05;17.50;;;8.80;;
43626;SDS011;29217;52.586;13.442;2023-10-19T00:18:42;20.20;;;8.90;;
43626;SDS011;29217;52.586;13.442;2023-10-19T00:21:08;17.20;;;8.05;;
43626;SDS011;29217;52.586;13.442;2023-10-19T00:23:45;16.67;;;7.80;;
43626;SDS011;29217;52.586;13.442;2023-10-19T00:26:14;16.80;;;8.63;;
43626;SDS011;29217;52.586;13.442;2023-10-19T00:28:42;16.02;;;8.18;;
43626;SDS011;29217;52.586;13.442;2023-10-19T00:31:11;17.45;;;9.02;;
43626;SDS011;29217;52.586;13.442;2023-10-19T00:33:38;20.85;;;8.48;;
43626;SDS011;29217;52.586;13.442;2023-10-19T00:36:05;18.90;;;8.73;;
43626;SDS011;29217;52.586;13.442;2023-10-19T00:38:40;16.63;;;8.73;;
43626;SDS011;29217;52.586;13.442;2023-10-19T00:41:18;18.25;;;9.20;;
43626;SDS011;29217;52.586;13.442;2023-10-19T00:43:47;17.20;;;9.50;;
43626;SDS011;29217;52.586;13.442;2023-10-19T00:46:18;17.30;;;8.55;;
43626;SDS011;29217;52.586;13.442;2023-10-19T00:48:47;18.08;;;8.30;;
43626;SDS011;29217;52.586;13.442;2023-10-19T00:51:21;15.20;;;8.85;;
43626;SDS011;29217;52.586;13.442;2023-10-19T00:53:56;17.75;;;8.65;;
43626;SDS011;29217;52.586;13.442;2023-10-19T00:56:26;19.67;;;9.70;;
43626;SDS011;29217;52.586;13.442;2023-10-19T00:58:56;18.60;;;8.98;;
43626;SDS011;29217;52.586;13.442;2023-10-19T01:01:26;25.58;;;9.13;;
43626;SDS011;29217;52.586;13.442;2023-10-19T01:03:56;20.63;;;10.10;;
43626;SDS011;29217;52.586;13.442;2023-10-19T01:06:23;20.00;;;8.52;;
43626;SDS011;29217;52.586;13.442;2023-10-19T01:08:50;16.63;;;8.13;;
43626;SDS011;29217;52.586;13.442;2023-10-19T01:11:17;16.23;;;8.55;;
43626;SDS011;29217;52.586;13.442;2023-10-19T01:13:46;18.85;;;8.60;;
43626;SDS011;29217;52.586;13.442;2023-10-19T01:16:15;18.08;;;8.90;;
43626;SDS011;29217;52.586;13.442;2023-10-19T01:18:46;16.65;;;8.30;;
43626;SDS011;29217;52.586;13.442;2023-10-19T01:21:27;17.35;;;8.38;;
43626;SDS011;29217;52.586;13.442;2023-10-19T01:24:05;16.77;;;8.15;;
43626;SDS011;29217;52.586;13.442;2023-10-19T01:26:37;16.02;;;8.05;;
43626;SDS011;29217;52.586;13.442;2023-10-19T01:29:03;19.60;;;8.38;;
43626;SDS011;29217;52.586;13.442;2023-10-19T01:31:38;19.58;;;8.93;;
43626;SDS011;29217;52.586;13.442;2023-10-19T01:34:16;18.92;;;8.73;;
43626;SDS011;29217;52.586;13.442;2023-10-19T01:36:45;16.88;;;8.48;;
43626;SDS011;29217;52.586;13.442;2023-10-19T01:39:15;16.40;;;8.48;;
43626;SDS011;29217;52.586;13.442;2023-10-19T01:41:43;20.52;;;8.77;;
43626;SDS011;29217;52.586;13.442;2023-10-19T01:44:10;17.70;;;8.38;;
43626;SDS011;29217;52.586;13.442;2023-10-19T01:46:40;15.13;;;8.20;;
43626;SDS011;29217;52.586;13.442;2023-10-19T01:49:08;20.90;;;8.98;;
43626;SDS011;29217;52.586;13.442;2023-10-19T01:51:34;17.08;;;9.23;;
43626;SDS011;29217;52.586;13.442;2023-10-19T01:54:03;19.05;;;9.48;;
43626;SDS011;29217;52.586;13.442;2023-10-19T01:56:30;17.48;;;8.95;;
43626;SDS011;29217;52.586;13.442;2023-10-19T01:58:58;19.10;;;9.10;;
43626;SDS011;29217;52.586;13.442;2023-10-19T02:01:24;16.42;;;8.43;;
43626;SDS011;29217;52.586;13.442;2023-10-19T02:03:53;16.58;;;8.35;;
43626;SDS011;29217;52.586;13.442;2023-10-19T02:06:23;26.92;;;8.20;;
43626;SDS011;29217;52.586;13.442;2023-10-19T02:09:11;17.02;;;8.77;;
43626;SDS011;29217;52.586;13.442;2023-10-19T02:11:57;17.58;;;8.98;;
43626;SDS011;29217;52.586;13.442;2023-10-19T02:14:23;18.05;;;8.45;;
43626;SDS011;29217;52.586;13.442;2023-10-19T02:16:54;17.63;;;9.13;;
43626;SDS011;29217;52.586;13.442;2023-10-19T02:19:22;19.30;;;8.63;;
43626;SDS011;29217;52.586;13.442;2023-10-19T02:21:48;22.00;;;9.10;;
43626;SDS011;29217;52.586;13.442;2023-10-19T02:24:15;19.63;;;8.68;;
43626;SDS011;29217;52.586;13.442;2023-10-19T02:26:41;20.55;;;9.05;;
43626;SDS011;29217;52.586;13.442;2023-10-19T02:29:08;19.88;;;9.35;;
43626;SDS011;29217;52.586;13.442;2023-10-19T02:31:38;20.25;;;8.82;;
43626;SDS011;29217;52.586;13.442;2023-10-19T02:34:08;18.23;;;9.32;;
43626;SDS011;29217;52.586;13.442;2023-10-19T02:36:35;19.35;;;9.43;;
43626;SDS011;29217;52.586;13.442;2023-10-19T02:39:06;22.73;;;10.02;;
43626;SDS011;29217;52.586;13.442;2023-10-19T02:41:34;15.52;;;8.43;;
43626;SDS011;29217;52.586;13.442;2023-10-19T02:44:01;19.35;;;9.20;;
43626;SDS011;29217;52.586;13.442;2023-10-19T02:49:16;20.58;;;8.85;;
43626;SDS011;29217;52.586;13.442;2023-10-19T02:51:45;17.67;;;8.73;;
43626;SDS011;29217;52.586;13.442;2023-10-19T02:54:14;21.50;;;9.82;;
43626;SDS011;29217;52.586;13.442;2023-10-19T02:56:55;20.55;;;9.23;;
43626;SDS011;29217;52.586;13.442;2023-10-19T02:59:24;21.85;;;9.00;;
43626;SDS011;29217;52.586;13.442;2023-10-19T03:01:54;18.08;;;8.20;;
43626;SDS011;29217;52.586;13.442;2023-10-19T03:04:42;18.35;;;8.65;;
43626;SDS011;29217;52.586;13.442;2023-10-19T03:07:09;26.17;;;10.43;;
43626;SDS011;29217;52.586;13.442;2023-10-19T03:09:37;18.27;;;8.75;;
43626;SDS011;29217;52.586;13.442;2023-10-19T03:12:03;23.52;;;9.65;;
43626;SDS011;29217;52.586;13.442;2023-10-19T03:14:34;21.10;;;10.05;;
43626;SDS011;29217;52.586;13.442;2023-10-19T03:16:59;17.38;;;9.02;;
43626;SDS011;29217;52.586;13.442;2023-10-19T03:19:25;20.70;;;10.05;;
43626;SDS011;29217;52.586;13.442;2023-10-19T03:21:51;20.13;;;9.60;;
43626;SDS011;29217;52.586;13.442;2023-10-19T03:24:17;22.30;;;10.30;;
43626;SDS011;29217;52.586;13.442;2023-10-19T03:27:03;22.42;;;8.98;;
43626;SDS011;29217;52.586;13.442;2023-10-19T03:29:37;22.77;;;10.57;;
43626;SDS011;29217;52.586;13.442;2023-10-19T03:32:10;18.50;;;9.23;;
43626;SDS011;29217;52.586;13.442;2023-10-19T03:34:37;20.30;;;8.73;;
43626;SDS011;29217;52.586;13.442;2023-10-19T03:37:03;22.73;;;10.20;;
43626;SDS011;29217;52.586;13.442;2023-10-19T03:39:37;18.10;;;8.85;;
43626;SDS011;29217;52.586;13.442;2023-10-19T03:42:03;17.77;;;9.25;;
43626;SDS011;29217;52.586;13.442;2023-10-19T03:44:31;24.33;;;9.52;;
43626;SDS011;29217;52.586;13.442;2023-10-19T03:47:18;21.42;;;9.57;;
43626;SDS011;29217;52.586;13.442;2023-10-19T03:49:45;20.55;;;9.82;;
43626;SDS011;29217;52.586;13.442;2023-10-19T03:52:12;20.10;;;9.30;;
43626;SDS011;29217;52.586;13.442;2023-10-19T03:54:38;21.63;;;9.48;;
43626;SDS011;29217;52.586;13.442;2023-10-19T03:57:09;22.38;;;9.85;;
43626;SDS011;29217;52.586;13.442;2023-10-19T03:59:50;20.98;;;8.43;;
43626;SDS011;29217;52.586;13.442;2023-10-19T04:02:22;20.58;;;9.27;;
43626;SDS011;29217;52.586;13.442;2023-10-19T04:04:52;24.60;;;10.60;;
43626;SDS011;29217;52.586;13.442;2023-10-19T04:07:20;25.88;;;11.23;;
43626;SDS011;29217;52.586;13.442;2023-10-19T04:09:49;25.50;;;9.20;;
43626;SDS011;29217;52.586;13.442;2023-10-19T04:12:25;23.13;;;10.15;;
43626;SDS011;29217;52.586;13.442;2023-10-19T04:14:54;23.08;;;10.23;;
43626;SDS011;29217;52.586;13.442;2023-10-19T04:17:21;19.98;;;9.50;;
43626;SDS011;29217;52.586;13.442;2023-10-19T04:19:48;26.25;;;9.77;;
43626;SDS011;29217;52.586;13.442;2023-10-19T04:22:16;30.83;;;11.10;;
43626;SDS011;29217;52.586;13.442;2023-10-19T04:24:47;18.70;;;9.73;;
43626;SDS011;29217;52.586;13.442;2023-10-19T04:27:13;22.38;;;10.27;;
43626;SDS011;29217;52.586;13.442;2023-10-19T04:29:39;22.90;;;10.13;;
43626;SDS011;29217;52.586;13.442;2023-10-19T04:32:08;21.40;;;8.93;;
43626;SDS011;29217;52.586;13.442;2023-10-19T04:34:34;24.60;;;10.90;;
43626;SDS011;29217;52.586;13.442;2023-10-19T04:37:01;21.33;;;10.48;;
43626;SDS011;29217;52.586;13.442;2023-10-19T04:39:28;23.48;;;10.73;;
43626;SDS011;29217;52.586;13.442;2023-10-19T04:41:55;24.60;;;10.40;;
43626;SDS011;29217;52.586;13.442;2023-10-19T04:44:21;23.00;;;10.10;;
43626;SDS011;29217;52.586;13.442;2023-10-19T04:46:47;25.35;;;10.77;;
43626;SDS011;29217;52.586;13.442;2023-10-19T04:49:14;23.92;;;10.93;;
43626;SDS011;29217;52.586;13.442;2023-10-19T04:51:41;23.02;;;11.10;;
43626;SDS011;29217;52.586;13.442;2023-10-19T04:54:08;24.92;;;10.65;;
43626;SDS011;29217;52.586;13.442;2023-10-19T04:56:34;20.60;;;10.10;;
43626;SDS011;29217;52.586;13.442;2023-10-19T04:59:01;20.55;;;10.40;;
43626;SDS011;29217;52.586;13.442;2023-10-19T05:01:27;25.48;;;10.80;;
43626;SDS011;29217;52.586;13.442;2023-10-19T05:03:53;24.23;;;10.73;;
43626;SDS011;29217;52.586;13.442;2023-10-19T05:06:19;22.92;;;11.00;;
43626;SDS011;29217;52.586;13.442;2023-10-19T05:08:44;21.02;;;10.50;;
43626;SDS011;29217;52.586;13.442;2023-10-19T05:11:11;22.52;;;11.25;;
43626;SDS011;29217;52.586;13.442;2023-10-19T05:13:37;22.02;;;9.95;;
43626;SDS011;29217;52.586;13.442;2023-10-19T05:16:04;31.40;;;11.98;;
43626;SDS011;29217;52.586;13.442;2023-10-19T05:18:30;21.95;;;10.20;;
43626;SDS011;29217;52.586;13.442;2023-10-19T05:20:56;21.50;;;10.32;;
43626;SDS011;29217;52.586;13.442;2023-10-19T05:23:25;26.70;;;11.07;;
43626;SDS011;29217;52.586;13.442;2023-10-19T05:25:53;23.33;;;11.15;;
43626;SDS011;29217;52.586;13.442;2023-10-19T05:28:24;22.88;;;10.98;;
43626;SDS011;29217;52.586;13.442;2023-10-19T05:30:50;25.08;;;11.23;;
43626;SDS011;29217;52.586;13.442;2023-10-19T05:33:16;27.27;;;10.95;;
43626;SDS011;29217;52.586;13.442;2023-10-19T05:35:49;24.08;;;10.77;;
43626;SDS011;29217;52.586;13.442;2023-10-19T05:38:15;23.58;;;11.52;;
43626;SDS011;29217;52.586;13.442;2023-10-19T05:40:41;26.30;;;11.85;;
43626;SDS011;29217;52.586;13.442;2023-10-19T05:43:10;24.40;;;11.07;;
43626;SDS011;29217;52.586;13.442;2023-10-19T05:45:36;28.73;;;12.30;;
43626;SDS011;29217;52.586;13.442;2023-10-19T05:48:05;25.23;;;11.25;;
43626;SDS011;29217;52.586;13.442;2023-10-19T05:50:34;27.95;;;11.48;;
43626;SDS011;29217;52.586;13.442;2023-10-19T05:53:01;23.38;;;11.85;;
43626;SDS011;29217;52.586;13.442;2023-10-19T05:55:30;29.25;;;11.20;;
43626;SDS011;29217;52.586;13.442;2023-10-19T05:57:56;24.55;;;10.45;;
43626;SDS011;29217;52.586;13.442;2023-10-19T06:00:22;23.00;;;11.18;;
43626;SDS011;29217;52.586;13.442;2023-10-19T06:02:51;31.08;;;12.38;;
43626;SDS011;29217;52.586;13.442;2023-10-19T06:05:17;24.40;;;12.18;;
43626;SDS011;29217;52.586;13.442;2023-10-19T06:07:47;27.55;;;12.45;;
43626;SDS011;29217;52.586;13.442;2023-10-19T06:10:15;25.13;;;11.93;;
43626;SDS011;29217;52.586;13.442;2023-10-19T06:12:46;34.63;;;11.93;;
43626;SDS011;29217;52.586;13.442;2023-10-19T06:15:13;25.20;;;11.25;;
43626;SDS011;29217;52.586;13.442;2023-10-19T06:17:41;29.35;;;11.88;;
43626;SDS011;29217;52.586;13.442;2023-10-19T06:20:07;23.40;;;11.57;;
43626;SDS011;29217;52.586;13.442;2023-10-19T06:22:44;24.73;;;12.02;;
43626;SDS011;29217;52.586;13.442;2023-10-19T06:25:16;27.98;;;12.10;;
43626;SDS011;29217;52.586;13.442;2023-10-19T06:27:46;30.98;;;12.50;;
43626;SDS011;29217;52.586;13.442;2023-10-19T06:30:13;26.10;;;12.20;;
43626;SDS011;29217;52.586;13.442;2023-10-19T06:32:48;25.73;;;12.05;;
43626;SDS011;29217;52.586;13.442;2023-10-19T06:35:22;28.98;;;12.30;;
43626;SDS011;29217;52.586;13.442;2023-10-19T06:37:48;25.67;;;11.82;;
43626;SDS011;29217;52.586;13.442;2023-10-19T06:40:15;24.38;;;12.27;;
43626;SDS011;29217;52.586;13.442;2023-10-19T06:42:42;33.33;;;13.45;;
43626;SDS011;29217;52.586;13.442;2023-10-19T06:45:15;26.95;;;11.90;;
43626;SDS011;29217;52.586;13.442;2023-10-19T06:47:45;26.10;;;11.57;;
43626;SDS011;29217;52.586;13.442;2023-10-19T06:50:12;30.23;;;11.88;;
43626;SDS011;29217;52.586;13.442;2023-10-19T06:52:40;22.40;;;11.35;;
43626;SDS011;29217;52.586;13.442;2023-10-19T06:55:07;24.92;;;12.50;;
43626;SDS011;29217;52.586;13.442;2023-10-19T06:57:54;27.92;;;12.32;;
43626;SDS011;29217;52.586;13.442;2023-10-19T07:00:23;28.60;;;12.82;;
43626;SDS011;29217;52.586;13.442;2023-10-19T07:02:52;23.83;;;10.38;;
43626;SDS011;29217;52.586;13.442;2023-10-19T07:05:20;26.13;;;12.50;;
43626;SDS011;29217;52.586;13.442;2023-10-19T07:07:47;28.35;;;12.73;;
43626;SDS011;29217;52.586;13.442;2023-10-19T07:10:15;30.05;;;13.68;;
43626;SDS011;29217;52.586;13.442;2023-10-19T07:12:43;26.77;;;12.32;;
43626;SDS011;29217;52.586;13.442;2023-10-19T07:15:11;31.58;;;12.40;;
43626;SDS011;29217;52.586;13.442;2023-10-19T07:17:44;27.23;;;11.25;;
43626;SDS011;29217;52.586;13.442;2023-10-19T07:20:11;26.15;;;12.25;;
43626;SDS011;29217;52.586;13.442;2023-10-19T07:22:50;25.15;;;11.63;;
43626;SDS011;29217;52.586;13.442;2023-10-19T07:25:19;27.98;;;12.25;;
43626;SDS011;29217;52.586;13.442;2023-10-19T07:27:47;29.05;;;11.80;;
43626;SDS011;29217;52.586;13.442;2023-10-19T07:30:13;29.08;;;12.18;;
43626;SDS011;29217;52.586;13.442;2023-10-19T07:32:40;27.30;;;11.77;;
43626;SDS011;29217;52.586;13.442;2023-10-19T07:35:06;31.52;;;13.88;;
43626;SDS011;29217;52.586;13.442;2023-10-19T07:37:32;26.73;;;12.57;;
43626;SDS011;29217;52.586;13.442;2023-10-19T07:39:58;32.15;;;13.07;;
43626;SDS011;29217;52.586;13.442;2023-10-19T07:42:23;28.75;;;13.43;;
43626;SDS011;29217;52.586;13.442;2023-10-19T07:44:50;29.77;;;13.35;;
43626;SDS011;29217;52.586;13.442;2023-10-19T07:47:16;28.80;;;13.85;;
43626;SDS011;29217;52.586;13.442;2023-10-19T07:49:42;34.58;;;14.80;;
43626;SDS011;29217;52.586;13.442;2023-10-19T07:52:08;25.90;;;12.73;;
43626;SDS011;29217;52.586;13.442;2023-10-19T07:54:36;34.25;;;13.57;;
43626;SDS011;29217;52.586;13.442;2023-10-19T07:57:02;28.30;;;12.82;;
43626;SDS011;29217;52.586;13.442;2023-10-19T07:59:31;22.23;;;11.30;;
43626;SDS011;29217;52.586;13.442;2023-10-19T08:02:00;23.60;;;11.52;;
43626;SDS011;29217;52.586;13.442;2023-10-19T08:04:27;25.05;;;11.35;;
43626;SDS011;29217;52.586;13.442;2023-10-19T08:06:53;22.75;;;11.60;;
43626;SDS011;29217;52.586;13.442;2023-10-19T08:09:20;24.92;;;10.98;;
43626;SDS011;29217;52.586;13.442;2023-10-19T08:11:48;23.77;;;11.63;;
43626;SDS011;29217;52.586;13.442;2023-10-19T08:14:14;25.05;;;10.90;;
43626;SDS011;29217;52.586;13.442;2023-10-19T08:16:40;22.85;;;11.55;;
43626;SDS011;29217;52.586;13.442;2023-10-19T08:19:06;25.00;;;11.30;;
43626;SDS011;29217;52.586;13.442;2023-10-19T08:21:32;25.63;;;11.10;;
43626;SDS011;29217;52.586;13.442;2023-10-19T08:23:59;21.85;;;10.10;;
43626;SDS011;29217;52.586;13.442;2023-10-19T08:26:29;19.63;;;10.98;;
43626;SDS011;29217;52.586;13.442;2023-10-19T08:28:55;21.85;;;11.02;;
43626;SDS011;29217;52.586;13.442;2023-10-19T08:31:22;22.55;;;11.02;;
43626;SDS011;29217;52.586;13.442;2023-10-19T08:33:49;24.15;;;10.98;;
43626;SDS011;29217;52.586;13.442;2023-10-19T08:36:18;23.02;;;11.70;;
43626;SDS011;29217;52.586;13.442;2023-10-19T08:38:45;24.25;;;10.82;;
43626;SDS011;29217;52.586;13.442;2023-10-19T08:41:12;23.50;;;10.60;;
43626;SDS011;29217;52.586;13.442;2023-10-19T08:43:39;20.73;;;10.80;;
43626;SDS011;29217;52.586;13.442;2023-10-19T08:46:05;23.90;;;11.00;;
43626;SDS011;29217;52.586;13.442;2023-10-19T08:48:35;22.08;;;11.32;;
43626;SDS011;29217;52.586;13.442;2023-10-19T08:51:08;22.25;;;10.98;;
43626;SDS011;29217;52.586;13.442;2023-10-19T08:53:36;28.92;;;11.57;;
43626;SDS011;29217;52.586;13.442;2023-10-19T08:56:05;26.45;;;12.98;;
43626;SDS011;29217;52.586;13.442;2023-10-19T08:58:34;22.60;;;10.93;;
43626;SDS011;29217;52.586;13.442;2023-10-19T09:01:00;22.10;;;10.95;;
43626;SDS011;29217;52.586;13.442;2023-10-19T09:03:31;25.75;;;11.65;;
43626;SDS011;29217;52.586;13.442;2023-10-19T09:06:01;27.83;;;12.13;;
43626;SDS011;29217;52.586;13.442;2023-10-19T09:08:27;27.33;;;11.38;;
43626;SDS011;29217;52.586;13.442;2023-10-19T09:11:06;27.23;;;11.63;;
43626;SDS011;29217;52.586;13.442;2023-10-19T09:13:45;27.40;;;12.23;;
43626;SDS011;29217;52.586;13.442;2023-10-19T09:16:16;23.75;;;10.93;;
43626;SDS011;29217;52.586;13.442;2023-10-19T09:18:43;29.55;;;11.93;;
43626;SDS011;29217;52.586;13.442;2023-10-19T09:21:10;22.95;;;10.68;;
43626;SDS011;29217;52.586;13.442;2023-10-19T09:23:49;23.58;;;10.93;;
43626;SDS011;29217;52.586;13.442;2023-10-19T09:26:19;23.02;;;11.07;;
43626;SDS011;29217;52.586;13.442;2023-10-19T09:28:47;26.52;;;12.00;;
43626;SDS011;29217;52.586;13.442;2023-10-19T09:31:13;24.83;;;11.23;;
43626;SDS011;29217;52.586;13.442;2023-10-19T09:33:41;23.17;;;10.93;;
43626;SDS011;29217;52.586;13.442;2023-10-19T09:36:11;26.40;;;12.30;;
43626;SDS011;29217;52.586;13.442;2023-10-19T09:38:50;19.45;;;10.05;;
43626;SDS011;29217;52.586;13.442;2023-10-19T09:41:25;29.73;;;11.48;;
43626;SDS011;29217;52.586;13.442;2023-10-19T09:43:55;24.45;;;12.07;;
43626;SDS011;29217;52.586;13.442;2023-10-19T09:46:32;23.90;;;11.48;;
43626;SDS011;29217;52.586;13.442;2023-10-19T09:49:01;26.88;;;11.13;;
43626;SDS011;29217;52.586;13.442;2023-10-19T09:51:27;25.17;;;12.15;;
43626;SDS011;29217;52.586;13.442;2023-10-19T09:56:46;23.58;;;11.95;;
43626;SDS011;29217;52.586;13.442;2023-10-19T09:59:26;25.48;;;11.73;;
43626;SDS011;29217;52.586;13.442;2023-10-19T10:02:03;24.63;;;11.68;;
43626;SDS011;29217;52.586;13.442;2023-10-19T10:04:30;25.40;;;11.70;;
43626;SDS011;29217;52.586;13.442;2023-10-19T10:06:57;27.85;;;11.98;;
43626;SDS011;29217;52.586;13.442;2023-10-19T10:09:25;23.80;;;11.35;;
43626;SDS011;29217;52.586;13.442;2023-10-19T10:11:52;25.83;;;12.35;;
43626;SDS011;29217;52.586;13.442;2023-10-19T10:14:25;23.80;;;10.52;;
43626;SDS011;29217;52.586;13.442;2023-10-19T10:17:00;22.25;;;11.50;;
43626;SDS011;29217;52.586;13.442;2023-10-19T10:19:26;26.95;;;12.07;;
43626;SDS011;29217;52.586;13.442;2023-10-19T10:22:08;25.88;;;11.43;;
43626;SDS011;29217;52.586;13.442;2023-10-19T10:24:42;22.17;;;11.05;;
43626;SDS011;29217;52.586;13.442;2023-10-19T10:27:08;23.25;;;11.07;;
43626;SDS011;29217;52.586;13.442;2023-10-19T10:29:35;25.27;;;12.10;;
43626;SDS011;29217;52.586;13.442;2023-10-19T10:32:01;33.08;;;12.35;;
43626;SDS011;29217;52.586;13.442;2023-10-19T10:37:02;26.88;;;11.68;;
43626;SDS011;29217;52.586;13.442;2023-10-19T10:39:28;25.90;;;12.20;;
43626;SDS011;29217;52.586;13.442;2023-10-19T10:41:56;22.48;;;10.80;;
43626;SDS011;29217;52.586;13.442;2023-10-19T10:45:08;25.48;;;11.55;;
43626;SDS011;29217;52.586;13.442;2023-10-19T10:47:11;22.17;;;12.18;;
43626;SDS011;29217;52.586;13.442;2023-10-19T10:52:29;23.08;;;11.45;;
43626;SDS011;29217;52.586;13.442;2023-10-19T10:55:18;28.00;;;12.55;;
43626;SDS011;29217;52.586;13.442;2023-10-19T10:57:43;24.20;;;13.15;;
43626;SDS011;29217;52.586;13.442;2023-10-19T11:00:13;22.80;;;11.98;;
43626;SDS011;29217;52.586;13.442;2023-10-19T11:02:40;25.45;;;12.18;;
43626;SDS011;29217;52.586;13.442;2023-10-19T11:05:15;23.20;;;11.57;;
43626;SDS011;29217;52.586;13.442;2023-10-19T11:10:49;27.60;;;12.00;;
43626;SDS011;29217;52.586;13.442;2023-10-19T11:13:16;26.08;;;11.40;;
43626;SDS011;29217;52.586;13.442;2023-10-19T11:15:52;28.85;;;13.82;;
43626;SDS011;29217;52.586;13.442;2023-10-19T11:21:11;29.05;;;12.10;;
43626;SDS011;29217;52.586;13.442;2023-10-19T11:23:40;26.10;;;12.90;;
43626;SDS011;29217;52.586;13.442;2023-10-19T11:26:11;30.42;;;13.60;;
43626;SDS011;29217;52.586;13.442;2023-10-19T11:28:38;28.73;;;12.85;;
43626;SDS011;29217;52.586;13.442;2023-10-19T11:31:17;28.48;;;12.50;;
43626;SDS011;29217;52.586;13.442;2023-10-19T11:33:47;26.33;;;12.70;;
43626;SDS011;29217;52.586;13.442;2023-10-19T11:36:16;33.22;;;13.73;;
43626;SDS011;29217;52.586;13.442;2023-10-19T11:38:44;37.08;;;13.20;;
43626;SDS011;29217;52.586;13.442;2023-10-19T11:41:11;28.73;;;13.27;;
43626;SDS011;29217;52.586;13.442;2023-10-19T11:43:47;30.17;;;13.02;;
43626;SDS011;29217;52.586;13.442;2023-10-19T11:46:14;25.45;;;13.13;;
43626;SDS011;29217;52.586;13.442;2023-10-19T11:48:47;25.52;;;13.68;;
43626;SDS011;29217;52.586;13.442;2023-10-19T11:51:13;27.45;;;14.32;;
43626;SDS011;29217;52.586;13.442;2023-10-19T11:53:40;28.77;;;13.70;;
43626;SDS011;29217;52.586;13.442;2023-10-19T11:56:08;33.25;;;13.60;;
43626;SDS011;29217;52.586;13.442;2023-10-19T11:58:35;28.83;;;13.48;;
43626;SDS011;29217;52.586;13.442;2023-10-19T12:01:03;26.88;;;13.63;;
43626;SDS011;29217;52.586;13.442;2023-10-19T12:03:38;37.22;;;14.57;;
43626;SDS011;29217;52.586;13.442;2023-10-19T12:06:08;29.75;;;13.52;;
43626;SDS011;29217;52.586;13.442;2023-10-19T12:08:37;28.33;;;13.02;;
43626;SDS011;29217;52.586;13.442;2023-10-19T12:11:05;31.00;;;13.98;;
43626;SDS011;29217;52.586;13.442;2023-10-19T12:13:40;26.20;;;12.98;;
43626;SDS011;29217;52.586;13.442;2023-10-19T12:16:08;30.55;;;14.57;;
43626;SDS011;29217;52.586;13.442;2023-10-19T12:18:37;29.63;;;14.30;;
43626;SDS011;29217;52.586;13.442;2023-10-19T12:21:09;29.85;;;13.55;;
43626;SDS011;29217;52.586;13.442;2023-10-19T12:23:39;31.60;;;14.80;;
43626;SDS011;29217;52.586;13.442;2023-10-19T12:26:09;37.67;;;14.85;;
43626;SDS011;29217;52.586;13.442;2023-10-19T12:28:38;30.65;;;14.35;;
43626;SDS011;29217;52.586;13.442;2023-10-19T12:31:05;26.90;;;13.68;;
43626;SDS011;29217;52.586;13.442;2023-10-19T12:33:34;29.70;;;14.45;;
43626;SDS011;29217;52.586;13.442;2023-10-19T12:36:00;30.27;;;12.88;;
43626;SDS011;29217;52.586;13.442;2023-10-19T12:38:26;30.95;;;14.93;;
43626;SDS011;29217;52.586;13.442;2023-10-19T12:40:52;24.75;;;13.27;;
43626;SDS011;29217;52.586;13.442;2023-10-19T12:43:19;30.27;;;13.73;;
43626;SDS011;29217;52.586;13.442;2023-10-19T12:45:47;32.97;;;14.85;;
43626;SDS011;29217;52.586;13.442;2023-10-19T12:48:18;32.75;;;14.65;;
43626;SDS011;29217;52.586;13.442;2023-10-19T12:50:44;32.40;;;14.35;;
43626;SDS011;29217;52.586;13.442;2023-10-19T12:53:10;35.78;;;15.10;;
43626;SDS011;29217;52.586;13.442;2023-10-19T12:55:36;33.50;;;15.65;;
43626;SDS011;29217;52.586;13.442;2023-10-19T12:58:05;35.00;;;14.82;;
43626;SDS011;29217;52.586;13.442;2023-10-19T13:00:34;31.95;;;14.18;;
43626;SDS011;29217;52.586;13.442;2023-10-19T13:03:04;29.90;;;14.35;;
43626;SDS011;29217;52.586;13.442;2023-10-19T13:05:36;34.88;;;16.17;;
43626;SDS011;29217;52.586;13.442;2023-10-19T13:08:02;36.72;;;15.20;;
43626;SDS011;29217;52.586;13.442;2023-10-19T13:10:39;34.97;;;15.23;;
43626;SDS011;29217;52.586;13.442;2023-10-19T13:13:08;33.47;;;15.95;;
43626;SDS011;29217;52.586;13.442;2023-10-19T13:15:38;31.08;;;15.90;;
43626;SDS011;29217;52.586;13.442;2023-10-19T13:18:06;32.72;;;15.25;;
43626;SDS011;29217;52.586;13.442;2023-10-19T13:20:34;30.77;;;15.32;;
43626;SDS011;29217;52.586;13.442;2023-10-19T13:23:01;27.80;;;14.60;;
43626;SDS011;29217;52.586;13.442;2023-10-19T13:25:31;40.58;;;16.73;;
43626;SDS011;29217;52.586;13.442;2023-10-19T13:28:11;33.28;;;15.88;;
43626;SDS011;29217;52.586;13.442;2023-10-19T13:30:41;34.83;;;15.32;;
43626;SDS011;29217;52.586;13.442;2023-10-19T13:33:12;35.15;;;15.43;;
43626;SDS011;29217;52.586;13.442;2023-10-19T13:35:39;39.17;;;15.93;;
43626;SDS011;29217;52.586;13.442;2023-10-19T13:38:07;31.70;;;14.57;;
43626;SDS011;29217;52.586;13.442;2023-10-19T13:40:42;30.25;;;15.63;;
43626;SDS011;29217;52.586;13.442;2023-10-19T13:43:10;32.08;;;14.63;;
43626;SDS011;29217;52.586;13.442;2023-10-19T13:45:40;32.58;;;14.20;;
43626;SDS011;29217;52.586;13.442;2023-10-19T13:48:08;28.83;;;14.70;;
43626;SDS011;29217;52.586;13.442;2023-10-19T13:50:34;32.25;;;15.20;;
43626;SDS011;29217;52.586;13.442;2023-10-19T13:53:01;29.45;;;14.82;;
43626;SDS011;29217;52.586;13.442;2023-10-19T13:55:30;30.40;;;14.65;;
43626;SDS011;29217;52.586;13.442;2023-10-19T13:57:56;29.92;;;15.55;;
43626;SDS011;29217;52.586;13.442;2023-10-19T14:00:22;29.15;;;14.10;;
43626;SDS011;29217;52.586;13.442;2023-10-19T14:02:49;31.42;;;15.20;;
43626;SDS011;29217;52.586;13.442;2023-10-19T14:05:18;33.30;;;15.98;;
43626;SDS011;29217;52.586;13.442;2023-10-19T14:07:45;35.47;;;14.90;;
43626;SDS011;29217;52.586;13.442;2023-10-19T14:10:12;31.17;;;14.60;;
43626;SDS011;29217;52.586;13.442;2023-10-19T14:12:39;29.52;;;14.88;;
43626;SDS011;29217;52.586;13.442;2023-10-19T14:15:11;29.90;;;14.85;;
43626;SDS011;29217;52.586;13.442;2023-10-19T14:17:39;30.65;;;13.77;;
43626;SDS011;29217;52.586;13.442;2023-10-19T14:20:04;33.60;;;16.00;;
43626;SDS011;29217;52.586;13.442;2023-10-19T14:22:31;36.08;;;16.33;;
43626;SDS011;29217;52.586;13.442;2023-10-19T14:24:59;31.35;;;15.32;;
43626;SDS011;29217;52.586;13.442;2023-10-19T14:27:25;34.40;;;14.50;;
43626;SDS011;29217;52.586;13.442;2023-10-19T14:29:51;32.03;;;15.45;;
43626;SDS011;29217;52.586;13.442;2023-10-19T14:32:17;35.70;;;16.50;;
43626;SDS011;29217;52.586;13.442;2023-10-19T14:34:42;32.75;;;15.57;;
43626;SDS011;29217;52.586;13.442;2023-10-19T14:37:08;37.65;;;14.50;;
43626;SDS011;29217;52.586;13.442;2023-10-19T14:39:34;30.48;;;15.05;;